CYXX

Abbotsford Airport

Abbotsford, , Canada
TAF CYXX 260538Z 2606/2706 VRB03KT P6SM SKC BECMG 2613/2615 04008KT RMK NXT FCST BY 261200Z
Issued Valid From Valid To
Apr-26 @ 05:38 UTC
(24 minutes ago)
Apr-26 @ 06:00 UTC
(2 minutes ago)
Apr-27 @ 06:00 UTC
(in 24 hours)
Apr-26 @ 06:00 to Apr-26 @ 13:00
TAF CYXX 260538Z 2606/2706 VRB03KT P6SM SKC
Wind Visibility Clouds
Variable at 3 knots Greater than 6 miles
  • Clear skies
Becoming Apr-26 @ 13:00 to Apr-27 @ 06:00
BECMG 2613/2615 04008KT RMK NXT FCST BY 261200Z
Wind Visibility Clouds
40° at 8 knots Greater than 6 miles
  • Clear skies
TAF CYXX 260538Z 2606/2706 VRB03KT P6SM SKC BECMG 2613/2615 04008KT RMK NXT FCST BY 261200Z
Issued Apr-26 @ 05:38 UTC
(24 minutes ago)
Valid From Apr-26 @ 06:00 UTC
(2 minutes ago)
Valid To Apr-27 @ 06:00 UTC
(in 24 hours)
Apr-26 @ 06:00 - Apr-26 @ 13:00
Wind Visibility
Variable at 3 knots Greater than 6 miles
Clouds
  • Clear skies
Becoming Apr-26 @ 13:00 - Apr-27 @ 06:00
Wind Visibility
40° at 8 knots Greater than 6 miles
Clouds
  • Clear skies